sensor_id;sensor_type;location;lat;lon;timestamp;P1;durP1;ratioP1;P2;durP2;ratioP2
77262;SDS011;66373;52.334;4.806;2023-02-01T00:00:06;38.17;;;15.88;;
77262;SDS011;66373;52.334;4.806;2023-02-01T00:02:35;31.42;;;13.90;;
77262;SDS011;66373;52.334;4.806;2023-02-01T00:05:06;31.38;;;13.35;;
77262;SDS011;66373;52.334;4.806;2023-02-01T00:07:35;27.77;;;13.95;;
77262;SDS011;66373;52.334;4.806;2023-02-01T00:10:02;31.58;;;14.20;;
77262;SDS011;66373;52.334;4.806;2023-02-01T00:12:31;31.17;;;13.85;;
77262;SDS011;66373;52.334;4.806;2023-02-01T00:15:00;35.20;;;15.07;;
77262;SDS011;66373;52.334;4.806;2023-02-01T00:17:27;31.25;;;14.13;;
77262;SDS011;66373;52.334;4.806;2023-02-01T00:19:54;34.97;;;13.60;;
77262;SDS011;66373;52.334;4.806;2023-02-01T00:22:21;29.20;;;12.80;;
77262;SDS011;66373;52.334;4.806;2023-02-01T00:24:49;26.08;;;11.95;;
77262;SDS011;66373;52.334;4.806;2023-02-01T00:27:16;33.75;;;13.73;;
77262;SDS011;66373;52.334;4.806;2023-02-01T00:29:46;29.73;;;12.52;;
77262;SDS011;66373;52.334;4.806;2023-02-01T00:32:14;27.83;;;12.50;;
77262;SDS011;66373;52.334;4.806;2023-02-01T00:34:42;28.98;;;12.05;;
77262;SDS011;66373;52.334;4.806;2023-02-01T00:37:09;27.15;;;12.05;;
77262;SDS011;66373;52.334;4.806;2023-02-01T00:39:36;22.55;;;11.52;;
77262;SDS011;66373;52.334;4.806;2023-02-01T00:42:04;28.55;;;12.02;;
77262;SDS011;66373;52.334;4.806;2023-02-01T00:44:31;26.77;;;11.77;;
77262;SDS011;66373;52.334;4.806;2023-02-01T00:47:00;23.10;;;10.95;;
77262;SDS011;66373;52.334;4.806;2023-02-01T00:49:29;20.80;;;10.00;;
77262;SDS011;66373;52.334;4.806;2023-02-01T00:51:56;24.60;;;10.63;;
77262;SDS011;66373;52.334;4.806;2023-02-01T00:54:23;21.40;;;9.75;;
77262;SDS011;66373;52.334;4.806;2023-02-01T00:56:50;21.50;;;10.27;;
77262;SDS011;66373;52.334;4.806;2023-02-01T00:59:18;20.98;;;9.20;;
77262;SDS011;66373;52.334;4.806;2023-02-01T01:01:45;21.73;;;10.32;;
77262;SDS011;66373;52.334;4.806;2023-02-01T01:04:13;20.02;;;9.45;;
77262;SDS011;66373;52.334;4.806;2023-02-01T01:06:42;19.98;;;8.27;;
77262;SDS011;66373;52.334;4.806;2023-02-01T01:09:09;21.20;;;9.32;;
77262;SDS011;66373;52.334;4.806;2023-02-01T01:11:37;19.58;;;8.65;;
77262;SDS011;66373;52.334;4.806;2023-02-01T01:14:05;20.40;;;8.80;;
77262;SDS011;66373;52.334;4.806;2023-02-01T01:16:35;22.00;;;8.38;;
77262;SDS011;66373;52.334;4.806;2023-02-01T01:19:02;18.05;;;8.65;;
77262;SDS011;66373;52.334;4.806;2023-02-01T01:21:29;18.55;;;8.75;;
77262;SDS011;66373;52.334;4.806;2023-02-01T01:23:58;17.50;;;8.20;;
77262;SDS011;66373;52.334;4.806;2023-02-01T01:26:27;15.30;;;8.15;;
77262;SDS011;66373;52.334;4.806;2023-02-01T01:28:56;14.30;;;7.40;;
77262;SDS011;66373;52.334;4.806;2023-02-01T01:31:24;15.70;;;7.72;;
77262;SDS011;66373;52.334;4.806;2023-02-01T01:33:52;17.77;;;7.38;;
77262;SDS011;66373;52.334;4.806;2023-02-01T01:36:22;18.60;;;6.78;;
77262;SDS011;66373;52.334;4.806;2023-02-01T01:38:53;15.63;;;6.72;;
77262;SDS011;66373;52.334;4.806;2023-02-01T01:41:22;15.73;;;7.20;;
77262;SDS011;66373;52.334;4.806;2023-02-01T01:43:53;15.00;;;6.57;;
77262;SDS011;66373;52.334;4.806;2023-02-01T01:46:24;12.65;;;6.50;;
77262;SDS011;66373;52.334;4.806;2023-02-01T01:48:57;15.10;;;6.63;;
77262;SDS011;66373;52.334;4.806;2023-02-01T01:51:31;12.05;;;6.00;;
77262;SDS011;66373;52.334;4.806;2023-02-01T01:54:03;13.75;;;6.07;;
77262;SDS011;66373;52.334;4.806;2023-02-01T01:56:36;11.35;;;5.45;;
77262;SDS011;66373;52.334;4.806;2023-02-01T01:59:13;13.65;;;6.57;;
77262;SDS011;66373;52.334;4.806;2023-02-01T02:01:41;13.38;;;6.22;;
77262;SDS011;66373;52.334;4.806;2023-02-01T02:04:08;12.85;;;6.03;;
77262;SDS011;66373;52.334;4.806;2023-02-01T02:06:39;13.43;;;5.65;;
77262;SDS011;66373;52.334;4.806;2023-02-01T02:09:11;10.20;;;5.00;;
77262;SDS011;66373;52.334;4.806;2023-02-01T02:11:40;11.30;;;5.38;;
77262;SDS011;66373;52.334;4.806;2023-02-01T02:14:09;11.45;;;5.95;;
77262;SDS011;66373;52.334;4.806;2023-02-01T02:16:54;11.25;;;5.85;;
77262;SDS011;66373;52.334;4.806;2023-02-01T02:22:42;10.55;;;5.43;;
77262;SDS011;66373;52.334;4.806;2023-02-01T02:28:40;9.35;;;4.55;;
77262;SDS011;66373;52.334;4.806;2023-02-01T02:31:46;11.05;;;5.40;;
77262;SDS011;66373;52.334;4.806;2023-02-01T02:34:26;14.35;;;5.35;;
77262;SDS011;66373;52.334;4.806;2023-02-01T02:37:00;9.93;;;5.15;;
77262;SDS011;66373;52.334;4.806;2023-02-01T02:39:38;12.02;;;4.55;;
77262;SDS011;66373;52.334;4.806;2023-02-01T02:42:17;10.32;;;4.50;;
77262;SDS011;66373;52.334;4.806;2023-02-01T02:45:12;9.75;;;4.82;;
77262;SDS011;66373;52.334;4.806;2023-02-01T02:48:04;12.45;;;5.18;;
77262;SDS011;66373;52.334;4.806;2023-02-01T02:50:41;10.85;;;4.75;;
77262;SDS011;66373;52.334;4.806;2023-02-01T02:53:32;10.40;;;4.47;;
77262;SDS011;66373;52.334;4.806;2023-02-01T02:56:20;9.15;;;4.32;;
77262;SDS011;66373;52.334;4.806;2023-02-01T02:59:08;10.05;;;4.35;;
77262;SDS011;66373;52.334;4.806;2023-02-01T03:01:54;11.23;;;4.53;;
77262;SDS011;66373;52.334;4.806;2023-02-01T03:04:39;11.43;;;4.07;;
77262;SDS011;66373;52.334;4.806;2023-02-01T03:07:13;8.88;;;4.10;;
77262;SDS011;66373;52.334;4.806;2023-02-01T03:09:41;6.88;;;3.88;;
77262;SDS011;66373;52.334;4.806;2023-02-01T03:12:12;11.43;;;4.18;;
77262;SDS011;66373;52.334;4.806;2023-02-01T03:15:00;8.95;;;4.18;;
77262;SDS011;66373;52.334;4.806;2023-02-01T03:17:34;10.23;;;4.28;;
77262;SDS011;66373;52.334;4.806;2023-02-01T03:20:07;8.77;;;4.10;;
77262;SDS011;66373;52.334;4.806;2023-02-01T03:22:40;8.40;;;3.72;;
77262;SDS011;66373;52.334;4.806;2023-02-01T03:25:10;9.68;;;4.72;;
77262;SDS011;66373;52.334;4.806;2023-02-01T03:27:42;7.82;;;3.88;;
77262;SDS011;66373;52.334;4.806;2023-02-01T03:30:16;8.52;;;3.22;;
77262;SDS011;66373;52.334;4.806;2023-02-01T03:32:48;8.40;;;4.05;;
77262;SDS011;66373;52.334;4.806;2023-02-01T03:35:28;11.27;;;4.00;;
77262;SDS011;66373;52.334;4.806;2023-02-01T03:38:01;7.47;;;3.58;;
77262;SDS011;66373;52.334;4.806;2023-02-01T03:40:37;7.75;;;3.22;;
77262;SDS011;66373;52.334;4.806;2023-02-01T03:43:05;9.60;;;4.50;;
77262;SDS011;66373;52.334;4.806;2023-02-01T03:45:38;7.40;;;3.40;;
77262;SDS011;66373;52.334;4.806;2023-02-01T03:48:10;7.95;;;3.97;;
77262;SDS011;66373;52.334;4.806;2023-02-01T03:50:43;6.15;;;3.15;;
77262;SDS011;66373;52.334;4.806;2023-02-01T03:53:16;12.30;;;3.85;;
77262;SDS011;66373;52.334;4.806;2023-02-01T03:55:46;9.57;;;3.90;;
77262;SDS011;66373;52.334;4.806;2023-02-01T03:58:14;6.22;;;3.25;;
77262;SDS011;66373;52.334;4.806;2023-02-01T04:00:44;7.13;;;3.40;;
77262;SDS011;66373;52.334;4.806;2023-02-01T04:03:16;7.90;;;3.65;;
77262;SDS011;66373;52.334;4.806;2023-02-01T04:05:44;9.40;;;3.60;;
77262;SDS011;66373;52.334;4.806;2023-02-01T04:08:11;6.55;;;3.88;;
77262;SDS011;66373;52.334;4.806;2023-02-01T04:10:40;8.00;;;3.75;;
77262;SDS011;66373;52.334;4.806;2023-02-01T04:13:07;6.90;;;3.63;;
77262;SDS011;66373;52.334;4.806;2023-02-01T04:15:34;11.23;;;3.88;;
77262;SDS011;66373;52.334;4.806;2023-02-01T04:18:02;7.53;;;3.50;;
77262;SDS011;66373;52.334;4.806;2023-02-01T04:20:29;8.55;;;3.88;;
77262;SDS011;66373;52.334;4.806;2023-02-01T04:22:56;8.50;;;3.42;;
77262;SDS011;66373;52.334;4.806;2023-02-01T04:25:23;7.63;;;3.50;;
77262;SDS011;66373;52.334;4.806;2023-02-01T04:27:52;7.03;;;3.50;;
77262;SDS011;66373;52.334;4.806;2023-02-01T04:30:20;7.50;;;3.42;;
77262;SDS011;66373;52.334;4.806;2023-02-01T04:32:49;6.38;;;3.13;;
77262;SDS011;66373;52.334;4.806;2023-02-01T04:35:16;6.30;;;3.00;;
77262;SDS011;66373;52.334;4.806;2023-02-01T04:37:44;6.80;;;3.38;;
77262;SDS011;66373;52.334;4.806;2023-02-01T04:40:12;6.38;;;3.20;;
77262;SDS011;66373;52.334;4.806;2023-02-01T04:42:39;7.45;;;3.60;;
77262;SDS011;66373;52.334;4.806;2023-02-01T04:45:09;9.05;;;3.25;;
77262;SDS011;66373;52.334;4.806;2023-02-01T04:47:37;6.28;;;3.20;;
77262;SDS011;66373;52.334;4.806;2023-02-01T04:50:04;5.68;;;3.25;;
77262;SDS011;66373;52.334;4.806;2023-02-01T04:52:35;8.25;;;3.30;;
77262;SDS011;66373;52.334;4.806;2023-02-01T04:55:04;9.05;;;3.20;;
77262;SDS011;66373;52.334;4.806;2023-02-01T04:57:32;8.45;;;3.10;;
77262;SDS011;66373;52.334;4.806;2023-02-01T04:59:59;7.75;;;3.13;;
77262;SDS011;66373;52.334;4.806;2023-02-01T05:02:27;5.75;;;2.80;;
77262;SDS011;66373;52.334;4.806;2023-02-01T05:04:55;6.00;;;3.22;;
77262;SDS011;66373;52.334;4.806;2023-02-01T05:07:22;8.80;;;3.05;;
77262;SDS011;66373;52.334;4.806;2023-02-01T05:09:49;6.57;;;3.00;;
77262;SDS011;66373;52.334;4.806;2023-02-01T05:12:16;7.60;;;3.00;;
77262;SDS011;66373;52.334;4.806;2023-02-01T05:15:00;8.98;;;3.50;;
77262;SDS011;66373;52.334;4.806;2023-02-01T05:17:28;5.57;;;3.08;;
77262;SDS011;66373;52.334;4.806;2023-02-01T05:19:55;7.88;;;3.13;;
77262;SDS011;66373;52.334;4.806;2023-02-01T05:22:22;7.57;;;2.88;;
77262;SDS011;66373;52.334;4.806;2023-02-01T05:24:49;8.13;;;3.13;;
77262;SDS011;66373;52.334;4.806;2023-02-01T05:27:16;9.43;;;3.00;;
77262;SDS011;66373;52.334;4.806;2023-02-01T05:29:43;6.57;;;3.10;;
77262;SDS011;66373;52.334;4.806;2023-02-01T05:32:10;6.93;;;2.85;;
77262;SDS011;66373;52.334;4.806;2023-02-01T05:34:38;7.10;;;3.50;;
77262;SDS011;66373;52.334;4.806;2023-02-01T05:37:05;7.30;;;3.05;;
77262;SDS011;66373;52.334;4.806;2023-02-01T05:39:32;7.07;;;3.08;;
77262;SDS011;66373;52.334;4.806;2023-02-01T05:41:59;7.57;;;3.30;;
77262;SDS011;66373;52.334;4.806;2023-02-01T05:44:26;6.10;;;2.97;;
77262;SDS011;66373;52.334;4.806;2023-02-01T05:46:53;6.63;;;2.63;;
77262;SDS011;66373;52.334;4.806;2023-02-01T05:49:20;5.60;;;2.90;;
77262;SDS011;66373;52.334;4.806;2023-02-01T05:51:48;5.88;;;2.75;;
77262;SDS011;66373;52.334;4.806;2023-02-01T05:54:15;4.07;;;2.50;;
77262;SDS011;66373;52.334;4.806;2023-02-01T05:56:42;7.53;;;2.80;;
77262;SDS011;66373;52.334;4.806;2023-02-01T05:59:09;6.65;;;2.95;;
77262;SDS011;66373;52.334;4.806;2023-02-01T06:01:36;5.93;;;2.90;;
77262;SDS011;66373;52.334;4.806;2023-02-01T06:04:02;7.95;;;3.10;;
77262;SDS011;66373;52.334;4.806;2023-02-01T06:06:29;9.93;;;3.17;;
77262;SDS011;66373;52.334;4.806;2023-02-01T06:08:58;7.75;;;2.70;;
77262;SDS011;66373;52.334;4.806;2023-02-01T06:11:25;6.93;;;3.00;;
77262;SDS011;66373;52.334;4.806;2023-02-01T06:13:53;6.07;;;2.83;;
77262;SDS011;66373;52.334;4.806;2023-02-01T06:16:20;7.55;;;3.40;;
77262;SDS011;66373;52.334;4.806;2023-02-01T06:18:48;5.93;;;3.03;;
77262;SDS011;66373;52.334;4.806;2023-02-01T06:21:15;7.15;;;3.00;;
77262;SDS011;66373;52.334;4.806;2023-02-01T06:23:48;9.30;;;3.03;;
77262;SDS011;66373;52.334;4.806;2023-02-01T06:26:17;7.22;;;3.20;;
77262;SDS011;66373;52.334;4.806;2023-02-01T06:28:44;5.80;;;3.33;;
77262;SDS011;66373;52.334;4.806;2023-02-01T06:31:11;9.38;;;3.03;;
77262;SDS011;66373;52.334;4.806;2023-02-01T06:33:38;7.35;;;3.00;;
77262;SDS011;66373;52.334;4.806;2023-02-01T06:36:06;9.95;;;3.10;;
77262;SDS011;66373;52.334;4.806;2023-02-01T06:38:36;7.40;;;3.22;;
77262;SDS011;66373;52.334;4.806;2023-02-01T06:41:04;8.43;;;3.35;;
77262;SDS011;66373;52.334;4.806;2023-02-01T06:43:32;9.65;;;3.05;;
77262;SDS011;66373;52.334;4.806;2023-02-01T06:46:00;5.43;;;2.83;;
77262;SDS011;66373;52.334;4.806;2023-02-01T06:48:27;8.23;;;3.70;;
77262;SDS011;66373;52.334;4.806;2023-02-01T06:50:54;7.22;;;3.00;;
77262;SDS011;66373;52.334;4.806;2023-02-01T06:53:22;10.20;;;3.47;;
77262;SDS011;66373;52.334;4.806;2023-02-01T06:55:52;8.52;;;3.05;;
77262;SDS011;66373;52.334;4.806;2023-02-01T06:58:20;9.50;;;3.45;;
77262;SDS011;66373;52.334;4.806;2023-02-01T07:00:48;4.85;;;2.80;;
77262;SDS011;66373;52.334;4.806;2023-02-01T07:03:15;6.38;;;2.83;;
77262;SDS011;66373;52.334;4.806;2023-02-01T07:05:42;5.80;;;3.17;;
77262;SDS011;66373;52.334;4.806;2023-02-01T07:08:09;12.48;;;3.58;;
77262;SDS011;66373;52.334;4.806;2023-02-01T07:10:36;8.02;;;3.03;;
77262;SDS011;66373;52.334;4.806;2023-02-01T07:13:05;9.35;;;3.25;;
77262;SDS011;66373;52.334;4.806;2023-02-01T07:15:31;10.07;;;3.55;;
77262;SDS011;66373;52.334;4.806;2023-02-01T07:18:00;9.75;;;2.92;;
77262;SDS011;66373;52.334;4.806;2023-02-01T07:20:27;7.90;;;3.08;;
77262;SDS011;66373;52.334;4.806;2023-02-01T07:22:55;5.47;;;3.05;;
77262;SDS011;66373;52.334;4.806;2023-02-01T07:25:22;7.32;;;3.30;;
77262;SDS011;66373;52.334;4.806;2023-02-01T07:27:50;7.32;;;3.25;;
77262;SDS011;66373;52.334;4.806;2023-02-01T07:30:17;12.05;;;3.20;;
77262;SDS011;66373;52.334;4.806;2023-02-01T07:32:45;6.93;;;2.83;;
77262;SDS011;66373;52.334;4.806;2023-02-01T07:35:13;9.10;;;2.92;;
77262;SDS011;66373;52.334;4.806;2023-02-01T07:37:40;7.20;;;2.67;;
77262;SDS011;66373;52.334;4.806;2023-02-01T07:40:08;7.28;;;3.40;;
77262;SDS011;66373;52.334;4.806;2023-02-01T07:42:36;13.27;;;3.28;;
77262;SDS011;66373;52.334;4.806;2023-02-01T07:45:04;11.48;;;3.67;;
77262;SDS011;66373;52.334;4.806;2023-02-01T07:47:32;15.32;;;3.70;;
77262;SDS011;66373;52.334;4.806;2023-02-01T07:49:59;6.93;;;3.10;;
77262;SDS011;66373;52.334;4.806;2023-02-01T07:52:28;8.45;;;3.10;;
77262;SDS011;66373;52.334;4.806;2023-02-01T07:54:55;12.15;;;2.97;;
77262;SDS011;66373;52.334;4.806;2023-02-01T07:57:22;10.45;;;3.35;;
77262;SDS011;66373;52.334;4.806;2023-02-01T07:59:50;6.60;;;3.05;;
77262;SDS011;66373;52.334;4.806;2023-02-01T08:02:38;8.73;;;2.90;;
77262;SDS011;66373;52.334;4.806;2023-02-01T08:05:05;8.15;;;3.15;;
77262;SDS011;66373;52.334;4.806;2023-02-01T08:07:34;8.32;;;3.03;;
77262;SDS011;66373;52.334;4.806;2023-02-01T08:10:01;7.72;;;2.97;;
77262;SDS011;66373;52.334;4.806;2023-02-01T08:12:31;8.93;;;3.55;;
77262;SDS011;66373;52.334;4.806;2023-02-01T08:14:58;9.48;;;3.28;;
77262;SDS011;66373;52.334;4.806;2023-02-01T08:17:26;8.10;;;3.15;;
77262;SDS011;66373;52.334;4.806;2023-02-01T08:19:53;10.27;;;4.00;;
77262;SDS011;66373;52.334;4.806;2023-02-01T08:22:21;8.13;;;4.03;;
77262;SDS011;66373;52.334;4.806;2023-02-01T08:24:50;10.23;;;3.42;;
77262;SDS011;66373;52.334;4.806;2023-02-01T08:27:26;10.88;;;3.05;;
77262;SDS011;66373;52.334;4.806;2023-02-01T08:29:53;9.38;;;3.33;;
77262;SDS011;66373;52.334;4.806;2023-02-01T08:32:20;8.88;;;2.88;;
77262;SDS011;66373;52.334;4.806;2023-02-01T08:34:48;10.07;;;3.30;;
77262;SDS011;66373;52.334;4.806;2023-02-01T08:37:15;9.52;;;2.83;;
77262;SDS011;66373;52.334;4.806;2023-02-01T08:39:42;9.57;;;3.25;;
77262;SDS011;66373;52.334;4.806;2023-02-01T08:42:11;12.40;;;2.95;;
77262;SDS011;66373;52.334;4.806;2023-02-01T08:44:56;7.85;;;3.15;;
77262;SDS011;66373;52.334;4.806;2023-02-01T08:47:23;9.52;;;3.35;;
77262;SDS011;66373;52.334;4.806;2023-02-01T08:49:51;12.75;;;3.45;;
77262;SDS011;66373;52.334;4.806;2023-02-01T08:52:18;11.93;;;3.30;;
77262;SDS011;66373;52.334;4.806;2023-02-01T08:54:45;10.98;;;3.30;;
77262;SDS011;66373;52.334;4.806;2023-02-01T08:57:14;9.80;;;3.17;;
77262;SDS011;66373;52.334;4.806;2023-02-01T08:59:42;6.60;;;3.30;;
77262;SDS011;66373;52.334;4.806;2023-02-01T09:02:11;9.45;;;3.30;;
77262;SDS011;66373;52.334;4.806;2023-02-01T09:04:39;12.48;;;3.60;;
77262;SDS011;66373;52.334;4.806;2023-02-01T09:07:06;14.15;;;3.40;;
77262;SDS011;66373;52.334;4.806;2023-02-01T09:09:33;11.55;;;3.17;;
77262;SDS011;66373;52.334;4.806;2023-02-01T09:12:01;15.18;;;3.78;;
77262;SDS011;66373;52.334;4.806;2023-02-01T09:14:30;9.70;;;3.15;;
77262;SDS011;66373;52.334;4.806;2023-02-01T09:16:58;10.88;;;3.30;;
77262;SDS011;66373;52.334;4.806;2023-02-01T09:19:25;9.05;;;3.67;;
77262;SDS011;66373;52.334;4.806;2023-02-01T09:21:52;8.20;;;3.22;;
77262;SDS011;66373;52.334;4.806;2023-02-01T09:24:20;8.60;;;3.20;;
77262;SDS011;66373;52.334;4.806;2023-02-01T09:26:47;7.20;;;3.30;;
77262;SDS011;66373;52.334;4.806;2023-02-01T09:29:14;11.80;;;3.63;;
77262;SDS011;66373;52.334;4.806;2023-02-01T09:31:43;10.43;;;3.20;;
77262;SDS011;66373;52.334;4.806;2023-02-01T09:34:10;5.97;;;2.95;;
77262;SDS011;66373;52.334;4.806;2023-02-01T09:36:38;9.63;;;3.83;;
77262;SDS011;66373;52.334;4.806;2023-02-01T09:39:05;10.95;;;3.35;;
77262;SDS011;66373;52.334;4.806;2023-02-01T09:41:35;7.88;;;3.05;;
77262;SDS011;66373;52.334;4.806;2023-02-01T09:44:14;6.32;;;3.17;;
77262;SDS011;66373;52.334;4.806;2023-02-01T09:46:58;11.73;;;3.47;;
77262;SDS011;66373;52.334;4.806;2023-02-01T09:49:26;7.82;;;3.55;;
77262;SDS011;66373;52.334;4.806;2023-02-01T09:51:56;8.73;;;3.40;;
77262;SDS011;66373;52.334;4.806;2023-02-01T09:54:26;9.50;;;3.38;;
77262;SDS011;66373;52.334;4.806;2023-02-01T09:56:56;11.38;;;3.05;;
77262;SDS011;66373;52.334;4.806;2023-02-01T09:59:32;6.40;;;3.22;;
77262;SDS011;66373;52.334;4.806;2023-02-01T10:04:53;7.75;;;2.67;;
77262;SDS011;66373;52.334;4.806;2023-02-01T10:07:26;9.10;;;2.97;;
77262;SDS011;66373;52.334;4.806;2023-02-01T10:10:04;8.23;;;3.38;;
77262;SDS011;66373;52.334;4.806;2023-02-01T10:12:59;8.45;;;3.38;;
77262;SDS011;66373;52.334;4.806;2023-02-01T10:15:47;10.38;;;3.25;;
77262;SDS011;66373;52.334;4.806;2023-02-01T10:18:31;6.43;;;2.72;;
77262;SDS011;66373;52.334;4.806;2023-02-01T10:21:10;10.75;;;3.15;;
77262;SDS011;66373;52.334;4.806;2023-02-01T10:23:52;7.10;;;3.05;;
77262;SDS011;66373;52.334;4.806;2023-02-01T10:26:30;8.32;;;3.65;;
77262;SDS011;66373;52.334;4.806;2023-02-01T10:29:00;11.90;;;3.33;;
77262;SDS011;66373;52.334;4.806;2023-02-01T10:31:31;8.55;;;3.15;;
77262;SDS011;66373;52.334;4.806;2023-02-01T10:34:09;8.80;;;3.08;;
77262;SDS011;66373;52.334;4.806;2023-02-01T10:36:46;11.07;;;3.75;;
77262;SDS011;66373;52.334;4.806;2023-02-01T10:39:19;6.07;;;3.03;;
77262;SDS011;66373;52.334;4.806;2023-02-01T10:41:47;10.70;;;2.55;;
77262;SDS011;66373;52.334;4.806;2023-02-01T10:44:15;9.95;;;3.25;;
77262;SDS011;66373;52.334;4.806;2023-02-01T10:46:43;8.40;;;3.25;;
77262;SDS011;66373;52.334;4.806;2023-02-01T10:49:13;7.13;;;2.90;;
77262;SDS011;66373;52.334;4.806;2023-02-01T10:51:47;12.30;;;3.33;;
77262;SDS011;66373;52.334;4.806;2023-02-01T10:54:19;9.25;;;3.50;;
77262;SDS011;66373;52.334;4.806;2023-02-01T10:56:48;8.15;;;3.08;;
77262;SDS011;66373;52.334;4.806;2023-02-01T10:59:18;8.75;;;3.45;;
77262;SDS011;66373;52.334;4.806;2023-02-01T11:01:47;12.10;;;3.00;;
77262;SDS011;66373;52.334;4.806;2023-02-01T11:04:17;8.38;;;3.00;;
77262;SDS011;66373;52.334;4.806;2023-02-01T11:06:46;7.07;;;3.00;;
77262;SDS011;66373;52.334;4.806;2023-02-01T11:09:18;9.07;;;3.42;;
77262;SDS011;66373;52.334;4.806;2023-02-01T11:11:55;8.95;;;3.10;;
77262;SDS011;66373;52.334;4.806;2023-02-01T11:14:30;8.38;;;3.53;;
77262;SDS011;66373;52.334;4.806;2023-02-01T11:17:03;8.68;;;3.00;;
77262;SDS011;66373;52.334;4.806;2023-02-01T11:19:46;8.80;;;3.00;;
77262;SDS011;66373;52.334;4.806;2023-02-01T11:22:13;11.65;;;3.45;;
77262;SDS011;66373;52.334;4.806;2023-02-01T11:24:42;8.98;;;2.90;;
77262;SDS011;66373;52.334;4.806;2023-02-01T11:27:14;7.03;;;2.80;;
77262;SDS011;66373;52.334;4.806;2023-02-01T11:29:44;10.43;;;3.53;;
77262;SDS011;66373;52.334;4.806;2023-02-01T11:32:15;10.10;;;3.38;;
77262;SDS011;66373;52.334;4.806;2023-02-01T11:34:47;8.90;;;3.35;;
77262;SDS011;66373;52.334;4.806;2023-02-01T11:37:19;4.78;;;2.55;;
77262;SDS011;66373;52.334;4.806;2023-02-01T11:42:27;8.82;;;2.75;;
77262;SDS011;66373;52.334;4.806;2023-02-01T11:45:13;8.45;;;3.05;;
77262;SDS011;66373;52.334;4.806;2023-02-01T11:47:44;9.38;;;3.20;;
77262;SDS011;66373;52.334;4.806;2023-02-01T11:50:15;8.77;;;3.10;;
77262;SDS011;66373;52.334;4.806;2023-02-01T11:52:53;12.85;;;3.63;;
77262;SDS011;66373;52.334;4.806;2023-02-01T11:55:39;7.25;;;3.15;;
77262;SDS011;66373;52.334;4.806;2023-02-01T11:58:40;7.32;;;2.50;;
77262;SDS011;66373;52.334;4.806;2023-02-01T12:01:21;7.32;;;3.10;;
77262;SDS011;66373;52.334;4.806;2023-02-01T12:06:56;6.82;;;2.78;;
77262;SDS011;66373;52.334;4.806;2023-02-01T12:09:32;13.65;;;3.35;;
77262;SDS011;66373;52.334;4.806;2023-02-01T12:12:12;7.93;;;3.10;;
77262;SDS011;66373;52.334;4.806;2023-02-01T12:14:52;8.80;;;3.10;;
77262;SDS011;66373;52.334;4.806;2023-02-01T12:23:34;8.40;;;2.95;;
77262;SDS011;66373;52.334;4.806;2023-02-01T12:26:21;10.20;;;3.42;;
77262;SDS011;66373;52.334;4.806;2023-02-01T12:29:03;11.20;;;3.22;;
77262;SDS011;66373;52.334;4.806;2023-02-01T12:31:43;6.45;;;3.00;;
77262;SDS011;66373;52.334;4.806;2023-02-01T12:37:28;6.22;;;2.80;;
77262;SDS011;66373;52.334;4.806;2023-02-01T12:40:14;8.43;;;2.83;;
77262;SDS011;66373;52.334;4.806;2023-02-01T12:42:51;7.97;;;3.00;;
77262;SDS011;66373;52.334;4.806;2023-02-01T12:45:25;6.25;;;2.90;;
77262;SDS011;66373;52.334;4.806;2023-02-01T12:47:59;8.57;;;3.15;;
77262;SDS011;66373;52.334;4.806;2023-02-01T12:50:41;7.85;;;3.10;;
77262;SDS011;66373;52.334;4.806;2023-02-01T12:53:14;6.75;;;2.50;;
77262;SDS011;66373;52.334;4.806;2023-02-01T12:55:47;7.68;;;2.83;;
77262;SDS011;66373;52.334;4.806;2023-02-01T12:58:17;7.55;;;2.85;;
77262;SDS011;66373;52.334;4.806;2023-02-01T13:00:50;9.93;;;3.08;;
77262;SDS011;66373;52.334;4.806;2023-02-01T13:03:26;7.03;;;2.67;;
77262;SDS011;66373;52.334;4.806;2023-02-01T13:06:13;5.97;;;2.95;;
77262;SDS011;66373;52.334;4.806;2023-02-01T13:08:45;8.30;;;2.90;;
77262;SDS011;66373;52.334;4.806;2023-02-01T13:11:20;10.40;;;2.95;;
77262;SDS011;66373;52.334;4.806;2023-02-01T13:13:53;8.60;;;3.22;;
77262;SDS011;66373;52.334;4.806;2023-02-01T13:16:26;10.50;;;3.35;;
77262;SDS011;66373;52.334;4.806;2023-02-01T13:18:59;10.25;;;3.40;;
77262;SDS011;66373;52.334;4.806;2023-02-01T13:21:32;6.18;;;2.58;;
77262;SDS011;66373;52.334;4.806;2023-02-01T13:24:03;11.00;;;3.28;;
77262;SDS011;66373;52.334;4.806;2023-02-01T13:26:32;5.13;;;2.58;;
77262;SDS011;66373;52.334;4.806;2023-02-01T13:28:59;14.90;;;3.20;;
77262;SDS011;66373;52.334;4.806;2023-02-01T13:31:35;9.48;;;2.55;;
77262;SDS011;66373;52.334;4.806;2023-02-01T13:34:33;7.35;;;2.80;;
77262;SDS011;66373;52.334;4.806;2023-02-01T13:37:25;10.70;;;3.22;;
77262;SDS011;66373;52.334;4.806;2023-02-01T13:40:08;6.50;;;3.30;;
77262;SDS011;66373;52.334;4.806;2023-02-01T13:42:47;6.28;;;2.97;;
77262;SDS011;66373;52.334;4.806;2023-02-01T13:45:17;7.38;;;3.13;;
77262;SDS011;66373;52.334;4.806;2023-02-01T13:47:48;6.25;;;2.85;;
77262;SDS011;66373;52.334;4.806;2023-02-01T13:50:20;11.10;;;2.97;;
77262;SDS011;66373;52.334;4.806;2023-02-01T13:52:52;11.23;;;3.22;;
77262;SDS011;66373;52.334;4.806;2023-02-01T13:55:25;8.57;;;2.83;;
77262;SDS011;66373;52.334;4.806;2023-02-01T14:00:45;10.82;;;2.83;;
77262;SDS011;66373;52.334;4.806;2023-02-01T14:03:14;9.77;;;3.33;;
77262;SDS011;66373;52.334;4.806;2023-02-01T14:11:44;7.63;;;2.95;;
77262;SDS011;66373;52.334;4.806;2023-02-01T14:23:21;5.80;;;2.70;;
77262;SDS011;66373;52.334;4.806;2023-02-01T14:28:45;7.82;;;2.63;;
77262;SDS011;66373;52.334;4.806;2023-02-01T14:31:33;10.27;;;3.20;;
77262;SDS011;66373;52.334;4.806;2023-02-01T14:34:09;9.13;;;3.45;;
77262;SDS011;66373;52.334;4.806;2023-02-01T14:36:41;8.80;;;3.13;;
77262;SDS011;66373;52.334;4.806;2023-02-01T14:39:20;6.15;;;2.90;;
77262;SDS011;66373;52.334;4.806;2023-02-01T14:41:53;8.45;;;3.08;;
77262;SDS011;66373;52.334;4.806;2023-02-01T14:44:27;8.85;;;3.20;;
77262;SDS011;66373;52.334;4.806;2023-02-01T14:47:08;9.52;;;2.88;;
77262;SDS011;66373;52.334;4.806;2023-02-01T14:49:38;6.57;;;2.92;;
77262;SDS011;66373;52.334;4.806;2023-02-01T14:52:13;9.30;;;3.00;;
77262;SDS011;66373;52.334;4.806;2023-02-01T14:54:44;5.80;;;2.90;;
77262;SDS011;66373;52.334;4.806;2023-02-01T14:57:16;7.35;;;2.85;;
77262;SDS011;66373;52.334;4.806;2023-02-01T14:59:46;5.68;;;2.50;;
77262;SDS011;66373;52.334;4.806;2023-02-01T15:02:20;11.00;;;3.63;;
77262;SDS011;66373;52.334;4.806;2023-02-01T15:04:53;7.13;;;2.90;;
77262;SDS011;66373;52.334;4.806;2023-02-01T15:07:22;7.63;;;3.08;;
77262;SDS011;66373;52.334;4.806;2023-02-01T15:09:52;7.78;;;2.95;;
77262;SDS011;66373;52.334;4.806;2023-02-01T15:12:23;6.78;;;2.95;;
77262;SDS011;66373;52.334;4.806;2023-02-01T15:15:05;9.85;;;3.00;;
77262;SDS011;66373;52.334;4.806;2023-02-01T15:17:40;9.45;;;3.33;;
77262;SDS011;66373;52.334;4.806;2023-02-01T15:20:17;7.15;;;2.72;;
77262;SDS011;66373;52.334;4.806;2023-02-01T15:22:53;8.43;;;3.00;;
77262;SDS011;66373;52.334;4.806;2023-02-01T15:25:23;8.32;;;2.90;;
77262;SDS011;66373;52.334;4.806;2023-02-01T15:27:53;7.03;;;2.75;;
77262;SDS011;66373;52.334;4.806;2023-02-01T15:30:21;6.18;;;2.83;;
77262;SDS011;66373;52.334;4.806;2023-02-01T15:32:52;8.88;;;2.67;;
77262;SDS011;66373;52.334;4.806;2023-02-01T15:35:33;9.38;;;2.75;;
77262;SDS011;66373;52.334;4.806;2023-02-01T15:41:00;7.38;;;2.97;;
77262;SDS011;66373;52.334;4.806;2023-02-01T15:43:31;11.07;;;3.10;;
77262;SDS011;66373;52.334;4.806;2023-02-01T15:46:01;12.13;;;3.67;;
77262;SDS011;66373;52.334;4.806;2023-02-01T15:48:36;6.32;;;2.53;;
77262;SDS011;66373;52.334;4.806;2023-02-01T15:51:06;8.57;;;2.55;;
77262;SDS011;66373;52.334;4.806;2023-02-01T15:53:43;8.85;;;2.75;;
77262;SDS011;66373;52.334;4.806;2023-02-01T15:56:13;9.13;;;3.00;;